createdAt,value
2022-08-09T00:01:10.553Z,93.40
2022-08-09T00:04:03.619Z,93.40
2022-08-09T00:06:29.104Z,93.50
2022-08-09T00:08:58.972Z,93.60
2022-08-09T00:12:02.950Z,93.60
2022-08-09T00:14:17.392Z,93.60
2022-08-09T00:16:54.930Z,93.60
2022-08-09T00:19:21.713Z,93.60
2022-08-09T00:21:55.827Z,93.60
2022-08-09T00:24:24.321Z,93.70
2022-08-09T00:26:51.252Z,93.60
2022-08-09T00:29:39.812Z,93.50
2022-08-09T00:32:06.173Z,93.50
2022-08-09T00:34:33.550Z,93.50
2022-08-09T00:37:00.452Z,93.50
2022-08-09T00:40:12.806Z,93.50
2022-08-09T00:44:10.961Z,93.40
2022-08-09T00:45:01.969Z,93.30
2022-08-09T00:47:33.219Z,93.20
2022-08-09T00:50:02.766Z,93.10
2022-08-09T00:52:31.154Z,93.10
2022-08-09T00:55:01.533Z,93.20
2022-08-09T00:57:34.991Z,93.10
2022-08-09T01:00:05.311Z,93.10
2022-08-09T01:02:49.584Z,93.20
2022-08-09T01:05:53.222Z,93.10
2022-08-09T01:08:33.318Z,93.10
2022-08-09T01:11:04.367Z,93.10
2022-08-09T01:14:02.046Z,93.00
2022-08-09T01:16:40.832Z,93.00
2022-08-09T01:19:39.842Z,93.10
2022-08-09T01:22:22.839Z,93.10
2022-08-09T01:25:13.262Z,93.10
2022-08-09T01:27:44.519Z,93.20
2022-08-09T01:30:28.758Z,93.20
2022-08-09T01:33:02.573Z,93.20
2022-08-09T01:35:51.876Z,93.10
2022-08-09T01:38:31.276Z,93.10
2022-08-09T01:41:13.829Z,93.00
2022-08-09T01:43:51.831Z,92.90
2022-08-09T01:46:31.835Z,93.00
2022-08-09T01:49:10.024Z,92.60
2022-08-09T01:51:39.379Z,92.50
2022-08-09T01:54:11.220Z,92.40
2022-08-09T01:56:40.460Z,92.40
2022-08-09T01:59:09.689Z,92.30
2022-08-09T02:01:59.047Z,92.20
2022-08-09T02:04:24.394Z,92.10
2022-08-09T02:07:18.164Z,92.10
2022-08-09T02:10:09.875Z,92.30
2022-08-09T02:12:36.811Z,92.00
2022-08-09T02:15:07.683Z,92.00
2022-08-09T02:18:00.684Z,91.90
2022-08-09T02:20:25.107Z,91.90
2022-08-09T02:23:02.660Z,91.80
2022-08-09T02:25:33.181Z,91.70
2022-08-09T02:28:18.018Z,91.70
2022-08-09T02:30:59.948Z,91.70
2022-08-09T02:33:37.725Z,91.50
2022-08-09T02:36:21.971Z,91.50
2022-08-09T02:38:54.439Z,91.40
2022-08-09T02:41:45.086Z,91.40
2022-08-09T02:44:30.190Z,91.40
2022-08-09T02:46:58.800Z,91.50
2022-08-09T02:49:27.302Z,91.50
2022-08-09T02:52:06.305Z,91.50
2022-08-09T02:54:34.674Z,91.50
2022-08-09T02:57:13.976Z,91.50
2022-08-09T03:00:20.965Z,91.50
2022-08-09T03:02:37.533Z,91.40
2022-08-09T03:05:16.594Z,91.40
2022-08-09T03:07:54.778Z,91.30
2022-08-09T03:10:22.316Z,91.30
2022-08-09T03:12:49.490Z,91.30
2022-08-09T03:15:20.637Z,91.30
2022-08-09T03:17:57.810Z,91.30
2022-08-09T03:20:29.702Z,91.20
2022-08-09T03:23:00.316Z,91.20
2022-08-09T03:25:56.896Z,91.20
2022-08-09T03:28:28.663Z,91.20
2022-08-09T03:30:57.155Z,91.20
2022-08-09T03:33:23.991Z,91.20
2022-08-09T03:36:12.903Z,91.20
2022-08-09T03:38:41.955Z,91.20
2022-08-09T03:41:09.876Z,91.20
2022-08-09T03:43:41.829Z,91.20
2022-08-09T03:46:20.544Z,91.20
2022-08-09T03:48:58.121Z,91.20
2022-08-09T03:51:56.867Z,91.20
2022-08-09T03:54:12.980Z,91.10
2022-08-09T03:56:46.496Z,91.10
2022-08-09T03:59:21.126Z,90.90
2022-08-09T04:01:56.012Z,90.90
2022-08-09T04:04:36.167Z,90.70
2022-08-09T04:07:06.002Z,90.50
2022-08-09T04:09:48.214Z,90.40
2022-08-09T04:12:41.749Z,90.40
2022-08-09T04:15:29.618Z,90.20
2022-08-09T04:17:58.882Z,89.80
2022-08-09T04:20:26.003Z,89.60
2022-08-09T04:22:53.546Z,89.60
2022-08-09T04:25:20.945Z,88.90
2022-08-09T04:27:49.400Z,87.50
2022-08-09T04:30:18.027Z,86.00
2022-08-09T04:32:47.832Z,84.40
2022-08-09T04:35:15.325Z,82.20
2022-08-09T04:37:46.239Z,81.60
2022-08-09T04:40:19.200Z,79.40
2022-08-09T04:42:56.782Z,78.60
2022-08-09T04:45:23.975Z,77.20
2022-08-09T04:47:58.857Z,75.90
2022-08-09T04:50:35.076Z,74.80
2022-08-09T04:53:13.002Z,73.90
2022-08-09T04:55:43.468Z,73.60
2022-08-09T04:58:25.785Z,72.80
2022-08-09T05:00:54.576Z,72.20
2022-08-09T05:03:40.301Z,71.90
2022-08-09T05:06:08.611Z,71.30
2022-08-09T05:08:35.641Z,70.20
2022-08-09T05:11:03.066Z,69.50
2022-08-09T05:13:33.150Z,69.20
2022-08-09T05:16:00.832Z,70.00
2022-08-09T05:18:38.008Z,68.20
2022-08-09T05:21:23.329Z,68.60
2022-08-09T05:23:59.760Z,69.30
2022-08-09T05:26:37.524Z,67.50
2022-08-09T05:29:17.753Z,67.90
2022-08-09T05:31:57.272Z,67.60
2022-08-09T05:34:30.913Z,68.30
2022-08-09T05:37:06.655Z,67.20
2022-08-09T05:39:43.641Z,67.00
2022-08-09T05:42:17.409Z,65.50
2022-08-09T05:44:50.695Z,64.70
2022-08-09T05:47:19.081Z,64.00
2022-08-09T05:50:24.418Z,64.10
2022-08-09T05:52:32.787Z,63.70
2022-08-09T05:55:03.249Z,62.30
2022-08-09T05:57:55.120Z,62.80
2022-08-09T06:00:22.261Z,61.00
2022-08-09T06:02:49.231Z,60.30
2022-08-09T06:05:31.306Z,60.80
2022-08-09T06:08:09.022Z,61.40
2022-08-09T06:10:39.170Z,61.00
2022-08-09T06:13:12.256Z,60.10
2022-08-09T06:15:46.874Z,59.40
2022-08-09T06:18:15.762Z,57.80
2022-08-09T06:20:43.565Z,56.30
2022-08-09T06:23:21.759Z,56.40
2022-08-09T06:25:49.381Z,56.40
2022-08-09T06:28:22.020Z,53.60
2022-08-09T06:30:54.318Z,54.50
2022-08-09T06:33:40.626Z,54.20
2022-08-09T06:36:09.324Z,54.60
2022-08-09T06:38:37.625Z,53.80
2022-08-09T06:41:18.314Z,51.90
2022-08-09T06:43:46.624Z,51.40
2022-08-09T06:46:40.089Z,51.60
2022-08-09T06:49:00.621Z,52.10
2022-08-09T06:51:28.141Z,52.10
2022-08-09T06:53:55.396Z,51.60
2022-08-09T06:56:30.627Z,51.40
2022-08-09T07:00:49.123Z,49.50
2022-08-09T07:01:53.874Z,49.80
2022-08-09T07:04:24.508Z,49.80
2022-08-09T07:06:53.167Z,48.70
2022-08-09T07:09:54.900Z,48.80
2022-08-09T07:12:07.761Z,49.10
2022-08-09T07:14:44.566Z,49.40
2022-08-09T07:17:11.908Z,49.40
2022-08-09T07:19:38.901Z,50.10
2022-08-09T07:22:05.808Z,50.20
2022-08-09T07:24:40.185Z,49.70
2022-08-09T07:27:26.946Z,49.00
2022-08-09T07:29:58.729Z,49.40
2022-08-09T07:32:33.415Z,49.60
2022-08-09T07:35:10.719Z,49.30
2022-08-09T07:37:43.352Z,49.00
2022-08-09T07:40:17.665Z,48.80
2022-08-09T07:42:54.539Z,48.50
2022-08-09T07:45:36.928Z,48.20
2022-08-09T07:48:05.750Z,47.70
2022-08-09T07:50:36.508Z,48.10
2022-08-09T07:53:04.640Z,48.20
2022-08-09T07:55:41.491Z,47.70
2022-08-09T07:58:21.782Z,46.90
2022-08-09T08:00:58.784Z,46.00
2022-08-09T08:03:33.310Z,46.30
2022-08-09T08:06:04.427Z,45.40
2022-08-09T08:09:02.690Z,45.20
2022-08-09T08:12:11.321Z,45.10
2022-08-09T08:14:06.224Z,45.10
2022-08-09T08:16:33.258Z,44.50
2022-08-09T08:19:02.948Z,44.40
2022-08-09T08:21:30.869Z,44.50
2022-08-09T08:24:00.875Z,44.70
2022-08-09T08:26:55.277Z,45.90
2022-08-09T08:29:20.458Z,46.10
2022-08-09T08:32:05.823Z,46.90
2022-08-09T08:34:34.752Z,47.60
2022-08-09T08:37:03.457Z,47.90
2022-08-09T08:39:38.277Z,48.20
2022-08-09T08:42:06.904Z,48.50
2022-08-09T08:44:36.996Z,48.90
2022-08-09T08:47:13.166Z,49.20
2022-08-09T08:49:48.310Z,49.70
2022-08-09T08:55:05.888Z,50.30
2022-08-09T08:57:35.332Z,50.30
2022-08-09T09:00:12.877Z,50.30
2022-08-09T09:02:52.291Z,50.10
2022-08-09T09:05:20.397Z,50.00
2022-08-09T09:07:59.829Z,49.50
2022-08-09T09:10:26.815Z,49.50
2022-08-09T09:12:53.548Z,49.50
2022-08-09T09:15:28.592Z,49.40
2022-08-09T09:17:55.569Z,49.50
2022-08-09T09:20:22.412Z,49.50
2022-08-09T09:22:55.537Z,49.60
2022-08-09T09:26:03.524Z,49.50
2022-08-09T09:29:01.899Z,49.40
2022-08-09T09:32:04.659Z,49.40
2022-08-09T09:34:14.349Z,49.50
2022-08-09T09:36:52.747Z,49.60
2022-08-09T09:39:23.241Z,49.90
2022-08-09T09:41:50.927Z,49.60
2022-08-09T09:44:32.799Z,49.00
2022-08-09T09:47:10.842Z,49.00
2022-08-09T09:50:07.446Z,47.70
2022-08-09T09:52:35.750Z,47.70
2022-08-09T09:55:27.851Z,47.90
2022-08-09T09:58:18.235Z,47.50
2022-08-09T10:00:52.800Z,47.80
2022-08-09T10:03:57.488Z,48.10
2022-08-09T10:06:43.492Z,47.80
2022-08-09T10:09:22.544Z,47.40
2022-08-09T10:12:26.824Z,46.70
2022-08-09T10:14:48.679Z,47.10
2022-08-09T10:17:40.536Z,48.20
2022-08-09T10:20:27.171Z,48.90
2022-08-09T10:23:13.511Z,48.00
2022-08-09T10:26:04.865Z,48.20
2022-08-09T10:28:32.189Z,47.50
2022-08-09T10:34:10.987Z,47.30
2022-08-09T10:36:33.195Z,47.40
2022-08-09T10:39:02.327Z,46.90
2022-08-09T10:41:29.086Z,46.60
2022-08-09T10:44:01.357Z,46.90
2022-08-09T10:46:55.594Z,47.30
2022-08-09T10:49:51.270Z,47.90
2022-08-09T10:52:44.983Z,46.50
2022-08-09T10:55:27.757Z,47.10
2022-08-09T10:57:55.395Z,47.60
2022-08-09T11:00:35.648Z,47.70
2022-08-09T11:03:18.565Z,47.90
2022-08-09T11:06:15.396Z,47.50
2022-08-09T11:08:47.427Z,46.40
2022-08-09T11:11:18.091Z,46.00
2022-08-09T11:13:53.833Z,45.50
2022-08-09T11:16:37.731Z,45.10
2022-08-09T11:19:08.089Z,44.70
2022-08-09T11:22:16.659Z,44.90
2022-08-09T11:25:14.848Z,44.70
2022-08-09T11:28:04.566Z,44.40
2022-08-09T11:30:32.876Z,44.30
2022-08-09T11:33:19.681Z,43.50
2022-08-09T11:35:50.203Z,42.80
2022-08-09T11:38:32.415Z,43.30
2022-08-09T11:41:13.696Z,42.60
2022-08-09T11:43:46.648Z,41.50
2022-08-09T11:46:18.541Z,42.20
2022-08-09T11:48:59.992Z,42.20
2022-08-09T11:53:00.885Z,42.50
2022-08-09T11:54:27.908Z,41.70
2022-08-09T11:57:47.757Z,41.80
2022-08-09T12:00:27.724Z,42.10
2022-08-09T12:02:56.514Z,41.20
2022-08-09T12:05:37.668Z,41.00
2022-08-09T12:08:09.437Z,41.30
2022-08-09T12:11:08.686Z,40.90
2022-08-09T12:14:10.298Z,41.50
2022-08-09T12:16:39.993Z,40.90
2022-08-09T12:19:09.297Z,41.40
2022-08-09T12:21:50.861Z,41.80
2022-08-09T12:24:24.951Z,41.90
2022-08-09T12:28:58.494Z,42.10
2022-08-09T12:30:02.102Z,42.40
2022-08-09T12:32:40.752Z,42.50
2022-08-09T12:35:10.839Z,42.70
2022-08-09T12:37:50.768Z,42.50
2022-08-09T12:40:20.493Z,41.80
2022-08-09T12:42:50.613Z,41.80
2022-08-09T12:45:34.381Z,41.60
2022-08-09T12:48:05.587Z,41.70
2022-08-09T12:50:35.828Z,42.00
2022-08-09T12:53:17.527Z,42.30
2022-08-09T12:56:12.411Z,42.50
2022-08-09T12:58:33.954Z,42.00
2022-08-09T13:01:04.749Z,42.00
2022-08-09T13:03:53.445Z,41.70
2022-08-09T13:06:44.209Z,41.70
2022-08-09T13:09:14.838Z,42.50
2022-08-09T13:11:45.727Z,42.80
2022-08-09T13:14:41.542Z,42.70
2022-08-09T13:17:44.056Z,42.30
2022-08-09T13:20:13.939Z,42.50
2022-08-09T13:23:05.740Z,41.80
2022-08-09T13:25:42.453Z,42.20
2022-08-09T13:28:24.447Z,42.30
2022-08-09T13:32:18.067Z,42.30
2022-08-09T13:33:58.290Z,42.80
2022-08-09T13:36:41.051Z,42.70
2022-08-09T13:41:19.296Z,43.00
2022-08-09T13:42:11.954Z,41.80
2022-08-09T13:44:40.229Z,41.50
2022-08-09T13:47:25.236Z,42.20
2022-08-09T13:50:08.731Z,42.60
2022-08-09T13:52:45.883Z,42.80
2022-08-09T13:55:15.041Z,42.30
2022-08-09T13:57:47.381Z,42.20
2022-08-09T14:00:23.275Z,41.90
2022-08-09T14:03:16.747Z,42.20
2022-08-09T14:05:58.389Z,42.30
2022-08-09T14:08:28.794Z,42.20
2022-08-09T14:10:56.765Z,42.30
2022-08-09T14:13:28.159Z,42.10
2022-08-09T14:16:15.352Z,42.60
2022-08-09T14:18:47.972Z,42.50
2022-08-09T14:21:18.563Z,42.50
2022-08-09T14:23:55.455Z,42.30
2022-08-09T14:26:31.766Z,42.10
2022-08-09T14:29:02.190Z,42.30
2022-08-09T14:31:35.821Z,42.00
2022-08-09T14:34:17.337Z,41.80
2022-08-09T14:36:55.391Z,41.60
2022-08-09T14:39:22.278Z,41.30
2022-08-09T14:42:09.029Z,41.40
2022-08-09T14:44:48.702Z,41.30
2022-08-09T14:47:42.762Z,41.40
2022-08-09T14:50:09.480Z,41.50
2022-08-09T14:52:37.978Z,41.20
2022-08-09T14:55:06.910Z,41.20
2022-08-09T14:57:43.372Z,41.40
2022-08-09T15:00:11.607Z,41.50
2022-08-09T15:02:38.782Z,41.10
2022-08-09T15:05:07.220Z,41.30
2022-08-09T15:07:35.043Z,41.30
2022-08-09T15:10:10.741Z,41.20
2022-08-09T15:12:44.816Z,41.30
2022-08-09T15:15:13.150Z,41.40
2022-08-09T15:17:41.837Z,41.40
2022-08-09T15:20:11.827Z,41.50
2022-08-09T15:22:46.535Z,41.60
2022-08-09T15:25:14.566Z,41.60
2022-08-09T15:28:01.941Z,41.90
2022-08-09T15:30:57.009Z,41.70
2022-08-09T15:33:23.491Z,41.50
2022-08-09T15:36:05.851Z,41.30
2022-08-09T15:38:33.885Z,41.40
2022-08-09T15:41:02.065Z,40.70
2022-08-09T15:43:38.486Z,41.20
2022-08-09T15:46:28.772Z,41.70
2022-08-09T15:49:21.076Z,41.90
2022-08-09T15:52:01.938Z,41.60
2022-08-09T15:54:33.564Z,41.90
2022-08-09T15:57:34.080Z,42.20
2022-08-09T16:00:08.348Z,42.30
2022-08-09T16:02:35.106Z,42.10
2022-08-09T16:05:06.910Z,42.00
2022-08-09T16:07:38.823Z,42.20
2022-08-09T16:10:11.073Z,42.40
2022-08-09T16:12:58.965Z,42.40
2022-08-09T16:16:09.768Z,42.40
2022-08-09T16:18:13.412Z,42.40
2022-08-09T16:20:41.673Z,42.90
2022-08-09T16:23:11.610Z,43.20
2022-08-09T16:25:40.822Z,43.30
2022-08-09T16:28:07.976Z,43.20
2022-08-09T16:30:44.700Z,43.60
2022-08-09T16:33:15.789Z,43.60
2022-08-09T16:35:57.476Z,43.30
2022-08-09T16:38:27.677Z,43.30
2022-08-09T16:40:59.172Z,43.50
2022-08-09T16:43:33.249Z,43.60
2022-08-09T16:48:52.089Z,43.70
2022-08-09T16:51:55.292Z,43.90
2022-08-09T16:54:27.830Z,44.20
2022-08-09T16:57:01.529Z,44.30
2022-08-09T16:59:28.277Z,44.50
2022-08-09T17:02:01.705Z,44.70
2022-08-09T17:04:28.886Z,44.90
2022-08-09T17:08:41.353Z,45.10
2022-08-09T17:09:43.990Z,44.90
2022-08-09T17:12:13.170Z,44.60
2022-08-09T17:14:47.748Z,44.80
2022-08-09T17:17:27.246Z,44.60
2022-08-09T17:20:28.793Z,44.80
2022-08-09T17:22:49.818Z,44.90
2022-08-09T17:25:18.755Z,44.90
2022-08-09T17:27:49.204Z,45.00
2022-08-09T17:30:20.918Z,45.10
2022-08-09T17:35:43.652Z,45.70
2022-08-09T17:38:13.847Z,45.30
2022-08-09T17:40:57.405Z,45.40
2022-08-09T17:43:33.635Z,45.50
2022-08-09T17:46:09.091Z,45.80
2022-08-09T17:48:38.684Z,46.10
2022-08-09T17:51:09.520Z,46.20
2022-08-09T17:53:52.259Z,46.30
2022-08-09T17:56:35.525Z,46.50
2022-08-09T17:59:09.065Z,46.70
2022-08-09T18:01:41.434Z,46.90
2022-08-09T18:04:25.246Z,47.10
2022-08-09T18:06:55.136Z,47.20
2022-08-09T18:09:35.860Z,47.40
2022-08-09T18:12:17.494Z,47.50
2022-08-09T18:14:53.908Z,48.20
2022-08-09T18:17:27.362Z,47.90
2022-08-09T18:20:59.748Z,48.00
2022-08-09T18:22:57.148Z,48.10
2022-08-09T18:25:53.238Z,48.60
2022-08-09T18:30:35.951Z,48.10
2022-08-09T18:31:05.308Z,48.10
2022-08-09T18:33:34.403Z,48.30
2022-08-09T18:36:01.285Z,48.40
2022-08-09T18:38:28.231Z,48.40
2022-08-09T18:40:55.717Z,48.70
2022-08-09T18:43:23.259Z,48.80
2022-08-09T18:46:50.383Z,49.00
2022-08-09T18:48:38.444Z,48.90
2022-08-09T18:51:09.463Z,49.10
2022-08-09T18:53:56.303Z,49.20
2022-08-09T18:56:27.154Z,49.10
2022-08-09T18:58:56.323Z,49.70
2022-08-09T19:01:23.644Z,49.80
2022-08-09T19:04:01.666Z,49.80
2022-08-09T19:06:36.277Z,50.50
2022-08-09T19:09:06.373Z,50.10
2022-08-09T19:11:35.383Z,50.10
2022-08-09T19:14:05.333Z,50.20
2022-08-09T19:16:36.500Z,50.50
2022-08-09T19:19:19.258Z,50.50
2022-08-09T19:22:06.359Z,50.70
2022-08-09T19:25:11.305Z,50.90
2022-08-09T19:27:25.859Z,51.00
2022-08-09T19:30:23.821Z,51.20
2022-08-09T19:32:42.452Z,51.30
2022-08-09T19:35:15.760Z,51.50
2022-08-09T19:37:55.924Z,51.50
2022-08-09T19:40:33.135Z,51.80
2022-08-09T19:43:01.931Z,51.80
2022-08-09T19:45:39.068Z,52.00
2022-08-09T19:48:09.479Z,52.10
2022-08-09T19:50:49.720Z,52.10
2022-08-09T19:53:20.753Z,52.30
2022-08-09T19:56:02.027Z,52.30
2022-08-09T19:58:32.834Z,52.50
2022-08-09T20:01:00.064Z,52.60
2022-08-09T20:04:18.429Z,52.80
2022-08-09T20:06:23.773Z,52.80
2022-08-09T20:08:57.008Z,52.90
2022-08-09T20:11:25.843Z,53.30
2022-08-09T20:13:54.233Z,53.40
2022-08-09T20:16:33.117Z,53.70
2022-08-09T20:19:48.669Z,53.70
2022-08-09T20:21:56.103Z,53.70
2022-08-09T20:24:29.796Z,53.80
2022-08-09T20:27:01.556Z,54.00
2022-08-09T20:29:32.625Z,54.10
2022-08-09T20:32:29.398Z,54.20
2022-08-09T20:34:55.081Z,54.20
2022-08-09T20:37:22.783Z,54.20
2022-08-09T20:40:15.919Z,54.30
2022-08-09T20:42:37.904Z,54.30
2022-08-09T20:45:56.909Z,54.60
2022-08-09T20:47:52.391Z,54.70
2022-08-09T20:50:47.859Z,54.70
2022-08-09T20:53:34.972Z,55.00
2022-08-09T20:56:02.337Z,55.70
2022-08-09T20:58:32.429Z,55.20
2022-08-09T21:01:02.266Z,55.30
2022-08-09T21:05:49.069Z,55.30
2022-08-09T21:06:28.005Z,55.40
2022-08-09T21:08:58.436Z,55.80
2022-08-09T21:14:12.284Z,55.90
2022-08-09T21:16:39.072Z,56.10
2022-08-09T21:20:19.523Z,56.10
2022-08-09T21:21:56.279Z,56.10
2022-08-09T21:24:28.853Z,56.20
2022-08-09T21:26:59.786Z,56.90
2022-08-09T21:29:48.986Z,56.60
2022-08-09T21:32:18.496Z,56.50
2022-08-09T21:34:49.215Z,56.80
2022-08-09T21:37:18.083Z,56.90
2022-08-09T21:39:45.402Z,56.90
2022-08-09T21:42:17.030Z,57.00
2022-08-09T21:44:44.389Z,57.20
2022-08-09T21:47:14.108Z,57.20
2022-08-09T21:49:44.589Z,57.10
2022-08-09T21:52:14.651Z,57.40
2022-08-09T21:54:59.633Z,57.40
2022-08-09T21:57:38.816Z,57.70
2022-08-09T22:00:26.840Z,57.80
2022-08-09T22:03:00.966Z,58.00
2022-08-09T22:05:33.666Z,58.00
2022-08-09T22:08:13.690Z,58.10
2022-08-09T22:11:48.777Z,58.10
2022-08-09T22:13:31.520Z,58.20
2022-08-09T22:16:01.142Z,58.20
2022-08-09T22:18:32.844Z,58.30
2022-08-09T22:21:00.440Z,58.30
2022-08-09T22:23:27.242Z,58.40
2022-08-09T22:26:06.900Z,58.40
2022-08-09T22:28:43.624Z,58.50
2022-08-09T22:31:20.495Z,58.60
2022-08-09T22:33:55.144Z,58.80
2022-08-09T22:36:22.538Z,58.80
2022-08-09T22:38:49.300Z,59.50
2022-08-09T22:41:16.355Z,58.90
2022-08-09T22:44:01.922Z,59.00
2022-08-09T22:48:12.117Z,59.30
2022-08-09T22:49:17.531Z,59.80
2022-08-09T22:51:49.953Z,59.50
2022-08-09T22:54:23.681Z,59.30
2022-08-09T22:56:56.742Z,59.30
2022-08-09T22:59:55.159Z,59.60
2022-08-09T23:02:14.925Z,59.60
2022-08-09T23:04:53.315Z,59.80
2022-08-09T23:08:22.528Z,59.90
2022-08-09T23:10:26.944Z,59.70
2022-08-09T23:12:53.697Z,59.90
2022-08-09T23:15:20.487Z,60.10
2022-08-09T23:17:47.223Z,60.10
2022-08-09T23:20:14.014Z,60.00
2022-08-09T23:22:40.907Z,60.20
2022-08-09T23:25:08.049Z,60.20
2022-08-09T23:27:35.011Z,60.40
2022-08-09T23:30:02.020Z,60.40
2022-08-09T23:32:28.799Z,60.50
2022-08-09T23:34:55.657Z,60.50
2022-08-09T23:37:25.536Z,61.40
2022-08-09T23:39:52.465Z,60.80
2022-08-09T23:42:19.253Z,61.00
2022-08-09T23:44:46.149Z,61.00
2022-08-09T23:47:12.967Z,61.20
2022-08-09T23:49:39.730Z,61.10
2022-08-09T23:52:06.851Z,61.40
2022-08-09T23:54:33.623Z,61.70
2022-08-09T23:57:02.591Z,61.60
2022-08-09T23:59:51.069Z,61.80
